createdAt,value
2018-11-14T00:00:03.914Z,13.10
2018-11-14T00:02:31.315Z,16.60
2018-11-14T00:04:58.898Z,11.57
2018-11-14T00:07:26.423Z,16.80
2018-11-14T00:09:53.866Z,14.37
2018-11-14T00:12:21.479Z,11.37
2018-11-14T00:14:48.923Z,14.20
2018-11-14T00:17:16.433Z,12.10
2018-11-14T00:19:44.059Z,12.43
2018-11-14T00:22:11.482Z,13.63
2018-11-14T00:24:38.975Z,21.57
2018-11-14T00:27:06.507Z,12.63
2018-11-14T00:29:34.216Z,17.80
2018-11-14T00:32:01.832Z,15.23
2018-11-14T00:34:29.477Z,13.83
2018-11-14T00:36:57.359Z,19.40
2018-11-14T00:39:24.531Z,20.50
2018-11-14T00:41:52.022Z,18.60
2018-11-14T00:44:19.512Z,16.23
2018-11-14T00:46:47.019Z,12.67
2018-11-14T00:49:14.467Z,11.23
2018-11-14T00:51:42.068Z,14.23
2018-11-14T00:54:09.648Z,13.07
2018-11-14T00:56:37.148Z,13.07
2018-11-14T00:59:04.983Z,17.00
2018-11-14T01:01:32.483Z,23.93
2018-11-14T01:03:59.881Z,13.67
2018-11-14T01:06:27.421Z,16.37
2018-11-14T01:08:54.819Z,17.77
2018-11-14T01:11:22.291Z,17.50
2018-11-14T01:13:49.754Z,15.50
2018-11-14T01:16:17.248Z,15.87
2018-11-14T01:18:45.060Z,17.67
2018-11-14T01:21:12.600Z,18.20
2018-11-14T01:23:40.155Z,12.93
2018-11-14T01:26:07.655Z,24.03
2018-11-14T01:28:35.146Z,17.70
2018-11-14T01:31:02.605Z,22.90
2018-11-14T01:33:30.043Z,16.10
2018-11-14T01:35:57.804Z,16.33
2018-11-14T01:38:24.974Z,13.17
2018-11-14T01:40:52.535Z,20.23
2018-11-14T01:43:19.952Z,33.60
2018-11-14T01:45:47.377Z,18.20
2018-11-14T01:48:14.962Z,22.93
2018-11-14T01:50:42.500Z,26.07
2018-11-14T01:53:09.901Z,16.70
2018-11-14T01:55:37.378Z,15.67
2018-11-14T01:58:05.755Z,25.07
2018-11-14T02:00:33.347Z,20.90
2018-11-14T02:03:00.929Z,19.00
2018-11-14T02:05:28.341Z,15.87
2018-11-14T02:07:55.741Z,14.10
2018-11-14T02:10:23.275Z,16.63
2018-11-14T02:12:50.755Z,18.77
2018-11-14T02:15:22.527Z,17.93
2018-11-14T02:17:52.574Z,23.03
2018-11-14T02:20:21.717Z,17.80
2018-11-14T02:22:49.129Z,23.80
2018-11-14T02:25:17.908Z,18.87
2018-11-14T02:27:45.658Z,21.23
2018-11-14T02:30:16.369Z,22.20
2018-11-14T02:32:44.023Z,17.10
2018-11-14T02:35:11.636Z,20.93
2018-11-14T02:37:40.286Z,21.80
2018-11-14T02:40:10.131Z,17.13
2018-11-14T02:42:37.759Z,24.13
2018-11-14T02:45:05.901Z,23.63
2018-11-14T02:47:33.624Z,20.77
2018-11-14T02:50:01.111Z,17.90
2018-11-14T02:52:28.509Z,19.53
2018-11-14T02:54:55.938Z,22.30
2018-11-14T02:57:23.708Z,22.50
2018-11-14T02:59:51.275Z,23.70
2018-11-14T03:02:18.748Z,21.77
2018-11-14T03:04:46.148Z,23.63
2018-11-14T03:07:13.569Z,26.07
2018-11-14T03:09:41.064Z,24.43
2018-11-14T03:12:08.559Z,23.00
2018-11-14T03:14:35.943Z,16.93
2018-11-14T03:17:03.464Z,21.80
2018-11-14T03:19:30.881Z,20.60
2018-11-14T03:21:58.329Z,25.23
2018-11-14T03:24:25.781Z,27.83
2018-11-14T03:26:53.283Z,21.43
2018-11-14T03:29:20.686Z,28.83
2018-11-14T03:31:48.166Z,21.40
2018-11-14T03:34:15.717Z,24.03
2018-11-14T03:36:43.157Z,22.50
2018-11-14T03:39:10.575Z,21.93
2018-11-14T03:41:38.075Z,28.43
2018-11-14T03:44:06.035Z,21.50
2018-11-14T03:46:33.513Z,26.30
2018-11-14T03:49:00.917Z,25.23
2018-11-14T03:51:28.337Z,21.00
2018-11-14T03:53:56.024Z,23.50
2018-11-14T03:56:23.549Z,21.50
2018-11-14T03:58:50.989Z,26.17
2018-11-14T04:01:18.401Z,23.60
2018-11-14T04:03:45.837Z,22.10
2018-11-14T04:06:13.350Z,25.37
2018-11-14T04:08:40.828Z,23.80
2018-11-14T04:11:08.333Z,22.77
2018-11-14T04:13:35.830Z,22.53
2018-11-14T04:16:03.350Z,30.00
2018-11-14T04:18:30.821Z,25.70
2018-11-14T04:20:58.258Z,34.17
2018-11-14T04:23:25.703Z,26.93
2018-11-14T04:25:53.177Z,24.60
2018-11-14T04:28:20.553Z,33.80
2018-11-14T04:30:48.201Z,32.17
2018-11-14T04:33:15.568Z,24.97
2018-11-14T04:35:42.957Z,23.73
2018-11-14T04:38:10.443Z,22.13
2018-11-14T04:40:37.897Z,27.13
2018-11-14T04:43:05.317Z,31.70
2018-11-14T04:45:32.854Z,32.10
2018-11-14T04:48:00.349Z,25.63
2018-11-14T04:50:27.778Z,24.33
2018-11-14T04:52:55.660Z,22.90
2018-11-14T04:55:24.222Z,22.97
2018-11-14T04:57:51.632Z,31.53
2018-11-14T05:00:20.515Z,33.43
2018-11-14T05:02:48.749Z,40.80
2018-11-14T05:05:17.647Z,57.20
2018-11-14T05:07:45.134Z,79.73
2018-11-14T05:10:15.164Z,116.10
2018-11-14T05:12:42.660Z,120.63
2018-11-14T05:15:12.763Z,124.77
2018-11-14T05:17:40.245Z,111.93
2018-11-14T05:20:09.487Z,123.30
2018-11-14T05:22:36.957Z,99.47
2018-11-14T05:25:04.799Z,123.90
2018-11-14T05:27:32.463Z,124.30
2018-11-14T05:29:59.945Z,134.27
2018-11-14T05:32:27.659Z,205.03
2018-11-14T05:34:55.153Z,116.77
2018-11-14T05:37:22.657Z,145.63
2018-11-14T05:39:50.206Z,155.20
2018-11-14T05:42:17.585Z,273.87
2018-11-14T05:44:45.161Z,134.60
2018-11-14T05:47:12.597Z,139.47
2018-11-14T05:49:40.171Z,97.07
2018-11-14T05:52:07.963Z,98.73
2018-11-14T05:54:35.445Z,132.57
2018-11-14T05:57:02.881Z,144.53
2018-11-14T05:59:30.407Z,141.87
2018-11-14T06:01:57.845Z,111.67
2018-11-14T06:04:25.237Z,164.97
2018-11-14T06:06:52.817Z,248.63
2018-11-14T06:09:20.223Z,141.03
2018-11-14T06:11:47.709Z,127.83
2018-11-14T06:14:15.278Z,102.13
2018-11-14T06:16:42.699Z,101.30
2018-11-14T06:19:10.215Z,119.00
2018-11-14T06:21:37.800Z,94.70
2018-11-14T06:24:05.273Z,89.60
2018-11-14T06:26:32.726Z,87.03
2018-11-14T06:29:00.205Z,68.83
2018-11-14T06:31:27.849Z,82.43
2018-11-14T06:33:55.383Z,94.97
2018-11-14T06:36:22.937Z,106.33
2018-11-14T06:38:50.395Z,92.43
2018-11-14T06:41:17.917Z,89.47
2018-11-14T06:43:45.447Z,80.47
2018-11-14T06:46:13.018Z,77.90
2018-11-14T06:48:40.495Z,78.93
2018-11-14T06:51:09.077Z,70.10
2018-11-14T06:53:36.480Z,93.73
2018-11-14T06:56:04.206Z,102.87
2018-11-14T06:58:31.804Z,79.30
2018-11-14T07:00:59.202Z,55.03
2018-11-14T07:03:26.677Z,92.37
2018-11-14T07:05:55.911Z,62.53
2018-11-14T07:08:23.406Z,56.33
2018-11-14T07:10:50.963Z,66.57
2018-11-14T07:13:18.381Z,66.70
2018-11-14T07:15:45.906Z,53.87
2018-11-14T07:18:13.306Z,46.20
2018-11-14T07:20:42.362Z,53.50
2018-11-14T07:23:09.792Z,59.23
2018-11-14T07:25:37.326Z,57.87
2018-11-14T07:28:04.954Z,50.73
2018-11-14T07:30:33.178Z,49.17
2018-11-14T07:33:03.211Z,48.60
2018-11-14T07:35:30.792Z,41.97
2018-11-14T07:38:35.830Z,50.87
2018-11-14T07:41:04.938Z,47.47
2018-11-14T07:43:33.339Z,51.57
2018-11-14T07:46:00.785Z,49.67
2018-11-14T07:48:28.629Z,57.13
2018-11-14T07:50:56.062Z,47.47
2018-11-14T07:53:23.684Z,59.90
2018-11-14T07:55:51.147Z,57.77
2018-11-14T07:58:18.636Z,95.90
2018-11-14T08:00:46.299Z,60.77
2018-11-14T08:03:13.775Z,55.83
2018-11-14T08:05:41.279Z,55.77
2018-11-14T08:08:08.771Z,87.13
2018-11-14T08:10:36.242Z,63.27
2018-11-14T08:13:03.903Z,158.17
2018-11-14T08:15:31.415Z,120.20
2018-11-14T08:17:59.011Z,121.83
2018-11-14T08:20:26.675Z,120.67
2018-11-14T08:22:54.492Z,123.67
2018-11-14T08:25:22.247Z,83.87
2018-11-14T08:27:49.751Z,133.17
2018-11-14T08:30:17.281Z,107.00
2018-11-14T08:32:44.950Z,146.47
2018-11-14T08:35:12.488Z,84.67
2018-11-14T08:37:40.617Z,98.63
2018-11-14T08:40:09.549Z,70.77
2018-11-14T08:42:37.593Z,131.07
2018-11-14T08:45:08.378Z,85.10
2018-11-14T08:47:36.464Z,67.17
2018-11-14T08:50:05.115Z,58.30
2018-11-14T08:52:32.742Z,50.93
2018-11-14T08:55:00.242Z,56.77
2018-11-14T08:57:27.718Z,55.30
2018-11-14T08:59:55.152Z,57.60
2018-11-14T09:02:22.856Z,56.00
2018-11-14T09:04:50.350Z,43.83
2018-11-14T09:07:18.017Z,65.80
2018-11-14T09:09:45.656Z,46.70
2018-11-14T09:12:13.278Z,51.03
2018-11-14T09:14:40.777Z,46.03
2018-11-14T09:17:08.806Z,57.30
2018-11-14T09:19:36.258Z,60.53
2018-11-14T09:22:03.990Z,40.40
2018-11-14T09:24:31.674Z,59.07
2018-11-14T09:26:59.611Z,51.07
2018-11-14T09:29:27.157Z,47.83
2018-11-14T09:31:54.617Z,46.10
2018-11-14T09:34:22.143Z,42.60
2018-11-14T09:36:49.715Z,49.70
2018-11-14T09:39:17.162Z,49.20
2018-11-14T09:41:44.619Z,52.33
2018-11-14T09:44:12.064Z,47.10
2018-11-14T09:46:39.544Z,54.10
2018-11-14T09:49:07.020Z,48.97
2018-11-14T09:51:34.784Z,51.00
2018-11-14T09:54:02.783Z,49.87
2018-11-14T09:56:30.444Z,48.33
2018-11-14T09:58:57.914Z,54.73
2018-11-14T10:01:25.444Z,48.73
2018-11-14T10:03:52.989Z,52.63
2018-11-14T10:06:20.475Z,63.77
2018-11-14T10:08:48.101Z,64.53
2018-11-14T10:11:15.570Z,63.30
2018-11-14T10:13:43.362Z,59.03
2018-11-14T10:16:10.982Z,59.57
2018-11-14T10:18:38.439Z,72.33
2018-11-14T10:21:06.173Z,55.67
2018-11-14T10:23:33.690Z,60.07
2018-11-14T10:26:01.234Z,61.53
2018-11-14T10:28:28.898Z,65.93
2018-11-14T10:30:56.562Z,61.70
2018-11-14T10:33:24.095Z,64.90
2018-11-14T10:35:51.670Z,64.70
2018-11-14T10:38:19.156Z,69.70
2018-11-14T10:40:46.654Z,57.23
2018-11-14T10:43:14.154Z,74.77
2018-11-14T10:45:41.790Z,78.57
2018-11-14T10:48:09.470Z,65.27
2018-11-14T10:50:36.918Z,56.50
2018-11-14T10:53:04.897Z,62.13
2018-11-14T10:55:32.847Z,71.93
2018-11-14T10:58:00.439Z,56.80
2018-11-14T11:00:33.780Z,62.40
2018-11-14T11:03:07.510Z,70.13
2018-11-14T11:05:40.637Z,50.33
2018-11-14T11:08:14.005Z,50.77
2018-11-14T11:10:46.926Z,55.33
2018-11-14T11:13:20.165Z,52.03
2018-11-14T11:15:53.466Z,55.20
2018-11-14T11:18:25.502Z,41.80
2018-11-14T11:20:53.235Z,47.00
2018-11-14T11:23:20.903Z,45.10
2018-11-14T11:25:48.435Z,43.77
2018-11-14T11:28:15.962Z,48.30
2018-11-14T11:30:43.561Z,49.50
2018-11-14T11:33:11.051Z,39.07
2018-11-14T11:35:38.559Z,35.67
2018-11-14T11:38:06.396Z,32.60
2018-11-14T11:40:34.349Z,33.83
2018-11-14T11:43:02.711Z,31.63
2018-11-14T11:45:30.343Z,45.10
2018-11-14T11:47:57.769Z,34.37
2018-11-14T11:50:25.376Z,35.43
2018-11-14T11:52:52.902Z,36.57
2018-11-14T11:55:20.479Z,36.37
2018-11-14T11:57:48.155Z,34.27
2018-11-14T12:00:16.498Z,30.10
2018-11-14T12:02:44.189Z,31.53
2018-11-14T12:05:12.899Z,30.17
2018-11-14T12:07:41.353Z,35.30
2018-11-14T12:10:10.194Z,35.63
2018-11-14T12:12:37.744Z,29.17
2018-11-14T12:15:07.002Z,41.97
2018-11-14T12:17:34.613Z,37.37
2018-11-14T12:20:02.070Z,32.63
2018-11-14T12:22:29.566Z,31.20
2018-11-14T12:24:57.136Z,22.80
2018-11-14T12:27:24.782Z,27.73
2018-11-14T12:29:52.789Z,28.23
2018-11-14T12:32:20.266Z,31.40
2018-11-14T12:34:47.909Z,23.97
2018-11-14T12:37:15.438Z,24.50
2018-11-14T12:39:42.927Z,32.80
2018-11-14T12:42:10.422Z,31.30
2018-11-14T12:44:38.040Z,22.40
2018-11-14T12:47:05.444Z,27.40
2018-11-14T12:49:32.874Z,26.37
2018-11-14T12:52:00.338Z,26.00
2018-11-14T12:54:27.767Z,25.33
2018-11-14T12:56:55.378Z,29.73
2018-11-14T12:59:23.039Z,26.97
2018-11-14T13:01:50.957Z,22.80
2018-11-14T13:04:18.546Z,26.60
2018-11-14T13:06:46.142Z,26.17
2018-11-14T13:09:13.589Z,23.87
2018-11-14T13:11:41.189Z,24.80
2018-11-14T13:14:08.740Z,25.00
2018-11-14T13:16:36.231Z,31.80
2018-11-14T13:19:04.122Z,26.57
2018-11-14T13:21:31.623Z,24.50
2018-11-14T13:23:59.062Z,29.53
2018-11-14T13:26:26.698Z,25.60
2018-11-14T13:28:54.129Z,20.60
2018-11-14T13:31:21.734Z,20.50
2018-11-14T13:33:49.224Z,19.50
2018-11-14T13:36:16.677Z,20.03
2018-11-14T13:38:44.259Z,24.57
2018-11-14T13:41:11.845Z,22.43
2018-11-14T13:43:39.458Z,22.20
2018-11-14T13:46:06.935Z,32.93
2018-11-14T13:48:34.468Z,21.63
2018-11-14T13:51:02.235Z,28.63
2018-11-14T13:53:29.708Z,21.70
2018-11-14T13:55:57.223Z,22.50
2018-11-14T13:58:24.806Z,24.43
2018-11-14T14:00:52.383Z,24.57
2018-11-14T14:03:19.939Z,27.57
2018-11-14T14:05:47.507Z,27.80
2018-11-14T14:08:14.963Z,31.10
2018-11-14T14:10:42.507Z,23.63
2018-11-14T14:13:09.897Z,28.00
2018-11-14T14:15:37.355Z,32.53
2018-11-14T14:18:05.047Z,30.80
2018-11-14T14:20:32.524Z,23.77
2018-11-14T14:22:59.953Z,25.90
2018-11-14T14:25:27.629Z,26.37
2018-11-14T14:27:55.267Z,33.13
2018-11-14T14:30:29.458Z,31.07
2018-11-14T14:32:56.896Z,38.07
2018-11-14T14:35:24.337Z,36.57
2018-11-14T14:37:52.687Z,34.80
2018-11-14T14:40:21.640Z,25.57
2018-11-14T14:42:49.530Z,30.87
2018-11-14T14:45:18.842Z,27.10
2018-11-14T14:47:46.410Z,28.07
2018-11-14T14:50:14.954Z,25.70
2018-11-14T14:52:43.707Z,28.73
2018-11-14T14:55:16.358Z,22.47
2018-11-14T14:57:45.268Z,30.83
2018-11-14T15:00:14.976Z,25.13
2018-11-14T15:02:43.047Z,29.47
2018-11-14T15:05:11.741Z,31.73
2018-11-14T15:07:39.624Z,38.23
2018-11-14T15:10:09.811Z,36.83
2018-11-14T15:12:37.430Z,30.60
2018-11-14T15:15:05.038Z,31.67
2018-11-14T15:17:32.656Z,43.63
2018-11-14T15:20:02.178Z,30.77
2018-11-14T15:22:29.728Z,38.53
2018-11-14T15:24:57.675Z,35.37
2018-11-14T15:27:25.379Z,37.80
2018-11-14T15:29:52.809Z,55.13
2018-11-14T15:32:20.306Z,34.93
2018-11-14T15:34:48.008Z,37.47
2018-11-14T15:37:15.577Z,37.00
2018-11-14T15:39:49.903Z,44.10
2018-11-14T15:42:17.398Z,48.10
2018-11-14T15:44:44.821Z,45.03
2018-11-14T15:47:12.375Z,40.87
2018-11-14T15:49:39.842Z,45.27
2018-11-14T15:52:07.490Z,45.97
2018-11-14T15:54:35.440Z,39.70
2018-11-14T15:57:03.212Z,37.10
2018-11-14T15:59:30.986Z,47.10
2018-11-14T16:01:58.527Z,42.20
2018-11-14T16:04:25.938Z,42.97
2018-11-14T16:06:53.564Z,48.80
2018-11-14T16:09:21.131Z,54.50
2018-11-14T16:11:48.810Z,40.10
2018-11-14T16:14:16.355Z,48.93
2018-11-14T16:16:43.899Z,32.20
2018-11-14T16:19:11.438Z,37.63
2018-11-14T16:21:39.028Z,36.70
2018-11-14T16:24:06.734Z,35.00
2018-11-14T16:26:34.278Z,30.73
2018-11-14T16:29:01.711Z,17.20
2018-11-14T16:31:29.230Z,13.73
2018-11-14T16:33:56.603Z,14.20
2018-11-14T16:36:24.023Z,13.80
2018-11-14T16:38:51.494Z,11.77
2018-11-14T16:41:19.214Z,12.10
2018-11-14T16:43:46.699Z,11.60
2018-11-14T16:46:14.372Z,8.50
2018-11-14T16:48:41.975Z,12.47
2018-11-14T16:51:10.921Z,16.03
2018-11-14T16:53:38.393Z,10.27
2018-11-14T16:56:05.983Z,11.63
2018-11-14T16:58:33.399Z,11.53
2018-11-14T17:01:00.851Z,14.90
2018-11-14T17:03:28.638Z,11.33
2018-11-14T17:05:56.159Z,13.00
2018-11-14T17:08:24.011Z,15.10
2018-11-14T17:10:51.547Z,13.77
2018-11-14T17:13:19.123Z,20.77
2018-11-14T17:15:46.655Z,19.70
2018-11-14T17:18:14.324Z,16.77
2018-11-14T17:20:41.895Z,19.93
2018-11-14T17:23:09.354Z,16.53
2018-11-14T17:25:36.850Z,17.43
2018-11-14T17:28:04.674Z,18.10
2018-11-14T17:30:32.255Z,20.43
2018-11-14T17:32:59.897Z,21.07
2018-11-14T17:35:27.387Z,19.00
2018-11-14T17:37:54.864Z,16.93
2018-11-14T17:40:25.146Z,18.37
2018-11-14T17:42:53.131Z,25.80
2018-11-14T17:45:22.841Z,22.40
2018-11-14T17:47:50.586Z,17.03
2018-11-14T17:50:23.584Z,19.30
2018-11-14T17:52:52.247Z,24.97
2018-11-14T17:55:20.678Z,21.97
2018-11-14T17:57:48.119Z,19.87
2018-11-14T18:00:18.827Z,21.40
2018-11-14T18:02:46.845Z,17.97
2018-11-14T18:05:15.820Z,18.67
2018-11-14T18:07:44.166Z,21.90
2018-11-14T18:10:13.579Z,22.23
2018-11-14T18:12:41.636Z,19.83
2018-11-14T18:15:10.248Z,20.93
2018-11-14T18:17:38.186Z,20.13
2018-11-14T18:20:07.557Z,18.17
2018-11-14T18:22:35.361Z,17.83
2018-11-14T18:25:06.534Z,22.10
2018-11-14T18:27:34.189Z,22.20
2018-11-14T18:30:02.049Z,21.63
2018-11-14T18:32:29.550Z,20.80
2018-11-14T18:34:57.049Z,19.77
2018-11-14T18:37:24.721Z,20.47
2018-11-14T18:39:52.268Z,24.60
2018-11-14T18:42:19.988Z,25.10
2018-11-14T18:44:47.430Z,20.93
2018-11-14T18:47:15.123Z,20.43
2018-11-14T18:49:42.606Z,18.37
2018-11-14T18:52:10.238Z,20.90
2018-11-14T18:54:37.687Z,23.60
2018-11-14T18:57:05.624Z,22.00
2018-11-14T18:59:33.163Z,26.30
2018-11-14T19:02:00.647Z,24.73
2018-11-14T19:04:28.181Z,23.10
2018-11-14T19:06:55.695Z,22.67
2018-11-14T19:09:23.201Z,22.80
2018-11-14T19:11:50.862Z,27.50
2018-11-14T19:14:18.373Z,25.00
2018-11-14T19:16:45.976Z,25.43
2018-11-14T19:19:13.645Z,26.83
2018-11-14T19:21:41.114Z,26.90
2018-11-14T19:24:08.575Z,28.60
2018-11-14T19:26:36.130Z,26.00
2018-11-14T19:29:04.074Z,30.37
2018-11-14T19:31:31.520Z,31.43
2018-11-14T19:33:59.036Z,32.33
2018-11-14T19:36:26.488Z,29.70
2018-11-14T19:38:53.953Z,33.00
2018-11-14T19:41:21.518Z,30.90
2018-11-14T19:43:49.035Z,29.53
2018-11-14T19:46:16.522Z,30.37
2018-11-14T19:48:44.104Z,35.77
2018-11-14T19:51:11.688Z,33.50
2018-11-14T19:53:39.170Z,36.30
2018-11-14T19:56:06.764Z,28.70
2018-11-14T19:58:34.442Z,29.07
2018-11-14T20:01:01.966Z,28.03
2018-11-14T20:03:29.562Z,33.33
2018-11-14T20:05:57.194Z,36.83
2018-11-14T20:08:24.844Z,35.50
2018-11-14T20:10:52.374Z,32.40
2018-11-14T20:13:20.064Z,28.73
2018-11-14T20:15:47.507Z,29.93
2018-11-14T20:18:14.994Z,27.40
2018-11-14T20:20:42.483Z,31.43
2018-11-14T20:23:10.058Z,32.00
2018-11-14T20:25:37.658Z,28.07
2018-11-14T20:28:05.376Z,32.90
2018-11-14T20:30:35.469Z,29.30
2018-11-14T20:33:04.591Z,27.73
2018-11-14T20:35:32.285Z,31.07
2018-11-14T20:38:00.127Z,27.93
2018-11-14T20:40:27.967Z,33.13
2018-11-14T20:42:55.920Z,28.13
2018-11-14T20:45:25.868Z,29.93
2018-11-14T20:47:53.406Z,28.73
2018-11-14T20:50:21.965Z,37.30
2018-11-14T20:52:52.172Z,38.10
2018-11-14T20:55:19.770Z,35.73
2018-11-14T20:57:47.392Z,34.00
2018-11-14T21:00:21.112Z,33.20
2018-11-14T21:02:49.503Z,32.20
2018-11-14T21:05:17.062Z,27.03
2018-11-14T21:07:44.667Z,33.53
2018-11-14T21:10:14.237Z,27.30
2018-11-14T21:12:42.189Z,36.17
2018-11-14T21:15:11.968Z,33.00
2018-11-14T21:17:39.747Z,34.70
2018-11-14T21:20:08.050Z,30.97
2018-11-14T21:22:35.817Z,26.73
2018-11-14T21:25:03.966Z,30.70
2018-11-14T21:27:31.402Z,29.83
2018-11-14T21:29:59.413Z,29.27
2018-11-14T21:32:26.869Z,31.87
2018-11-14T21:34:54.517Z,28.13
2018-11-14T21:37:22.012Z,31.73
2018-11-14T21:39:49.450Z,27.10
2018-11-14T21:42:17.101Z,27.60
2018-11-14T21:44:44.653Z,26.90
2018-11-14T21:52:16.778Z,26.30
2018-11-14T21:54:44.221Z,28.33
2018-11-14T21:57:11.641Z,29.83
2018-11-14T21:59:39.158Z,27.93
2018-11-14T22:02:06.625Z,33.13
2018-11-14T22:04:34.133Z,33.13
2018-11-14T22:07:01.675Z,26.57
2018-11-14T22:09:29.175Z,28.93
2018-11-14T22:11:56.759Z,41.87
2018-11-14T22:14:24.245Z,30.27
2018-11-14T22:16:51.805Z,32.13
2018-11-14T22:19:19.241Z,28.30
2018-11-14T22:21:46.715Z,27.10
2018-11-14T22:24:14.125Z,26.73
2018-11-14T22:26:41.601Z,27.23
2018-11-14T22:29:09.100Z,26.90
2018-11-14T22:31:36.775Z,26.30
2018-11-14T22:34:04.861Z,26.70
2018-11-14T22:36:32.393Z,27.83
2018-11-14T22:38:59.807Z,25.57
2018-11-14T22:41:27.393Z,24.63
2018-11-14T22:43:54.980Z,27.70
2018-11-14T22:46:22.384Z,30.97
2018-11-14T22:48:49.826Z,25.87
2018-11-14T22:51:17.317Z,21.63
2018-11-14T22:53:44.811Z,26.23
2018-11-14T22:56:12.293Z,23.40
2018-11-14T22:58:39.755Z,26.20
2018-11-14T23:01:07.233Z,25.73
2018-11-14T23:03:34.715Z,24.67
2018-11-14T23:06:02.302Z,24.50
2018-11-14T23:08:29.711Z,23.97
2018-11-14T23:10:57.321Z,24.50
2018-11-14T23:13:24.901Z,23.43
2018-11-14T23:15:52.383Z,25.87
2018-11-14T23:18:19.789Z,25.10
2018-11-14T23:20:47.347Z,27.20
2018-11-14T23:23:14.870Z,27.30
2018-11-14T23:25:42.273Z,25.47
2018-11-14T23:28:10.661Z,26.87
2018-11-14T23:30:38.102Z,26.03
2018-11-14T23:33:05.581Z,28.93
2018-11-14T23:35:33.021Z,26.57
2018-11-14T23:38:02.828Z,24.20
2018-11-14T23:40:30.621Z,26.57
2018-11-14T23:42:58.095Z,24.20
2018-11-14T23:45:26.347Z,26.93
2018-11-14T23:47:53.889Z,25.20
2018-11-14T23:50:23.813Z,28.83
2018-11-14T23:52:52.527Z,29.87
2018-11-14T23:55:20.810Z,28.90
2018-11-14T23:57:48.546Z,25.00
